Time;durP1;ratioP1;P1;durP2;ratioP2;P2;SDS_P1;SDS_P2;PMS_P1;PMS_P2;Temp;Humidity;BMP_temperature;BMP_pressure;BME280_temperature;BME280_humidity;BME280_pressure;Samples;Min_cycle;Max_cycle;Signal;HPM_P1;HPM_P2
2023/04/25 00:00:08;;;;;;;12.50;5.30;;;;;;;10.25;62.05;99933.70;126588;1089;104256;-80
2023/04/25 00:03:00;;;;;;;13.33;6.50;;;;;;;10.24;61.59;99931.95;126718;1086;104509;-78
2023/04/25 00:05:30;;;;;;;16.67;6.10;;;;;;;10.20;62.46;99930.95;126406;1089;104841;-80
2023/04/25 00:07:59;;;;;;;14.33;6.30;;;;;;;10.16;62.48;99933.44;126925;1086;104149;-79
2023/04/25 00:10:28;;;;;;;15.43;6.90;;;;;;;10.13;61.99;99935.98;127070;1086;104190;-79
2023/04/25 00:12:57;;;;;;;10.93;5.90;;;;;;;10.14;62.61;99925.53;126568;1086;104286;-80
2023/04/25 00:15:26;;;;;;;12.97;6.00;;;;;;;10.13;62.10;99922.88;126675;1086;104326;-81
2023/04/25 00:17:54;;;;;;;13.87;5.73;;;;;;;10.12;62.18;99924.61;126454;1086;104400;-81
2023/04/25 00:20:23;;;;;;;15.43;6.40;;;;;;;10.16;62.39;99917.71;126418;1086;101804;-81
2023/04/25 00:22:53;;;;;;;12.97;5.70;;;;;;;10.19;62.93;99917.80;126184;1086;104242;-80
2023/04/25 00:25:22;;;;;;;12.60;5.77;;;;;;;10.21;62.88;99918.75;126483;1086;104363;-80
2023/04/25 00:27:50;;;;;;;13.23;5.80;;;;;;;10.24;62.61;99914.47;126484;1086;104258;-79
2023/04/25 00:30:19;;;;;;;12.50;5.93;;;;;;;10.24;63.23;99910.97;127067;1086;104158;-81
2023/04/25 00:32:49;;;;;;;13.60;5.67;;;;;;;10.26;63.03;99906.65;126852;1086;104228;-78
2023/04/25 00:35:18;;;;;;;14.70;5.80;;;;;;;10.27;63.24;99908.44;126150;1086;110869;-80
2023/04/25 00:37:47;;;;;;;17.43;5.90;;;;;;;10.27;62.95;99903.19;126656;1086;104309;-79
2023/04/25 00:40:16;;;;;;;13.57;5.93;;;;;;;10.29;63.16;99903.23;126502;1086;104294;-81
2023/04/25 00:42:45;;;;;;;14.27;5.93;;;;;;;10.28;62.89;99902.33;126504;1086;104267;-79
2023/04/25 00:45:15;;;;;;;13.03;6.00;;;;;;;10.28;63.81;99898.83;126572;1086;104366;-79
2023/04/25 00:47:45;;;;;;;12.40;6.23;;;;;;;10.31;63.19;99899.78;126375;1086;104267;-79
2023/04/25 00:50:14;;;;;;;15.27;6.13;;;;;;;10.34;63.71;99897.28;126549;1086;104222;-79
2023/04/25 00:52:45;;;;;;;12.27;5.67;;;;;;;10.35;63.89;99896.44;126241;1086;104312;-80
2023/04/25 00:55:15;;;;;;;12.73;5.60;;;;;;;10.38;63.51;99899.15;126472;1086;104360;-80
2023/04/25 00:57:44;;;;;;;16.07;6.30;;;;;;;10.34;63.69;99889.41;126367;1086;104241;-80
2023/04/25 01:00:14;;;;;;;13.30;6.30;;;;;;;10.34;63.68;99886.79;126654;1085;104277;-80
2023/04/25 01:02:44;;;;;;;11.87;5.80;;;;;;;10.34;63.68;99885.91;126525;1086;104225;-81
2023/04/25 01:05:13;;;;;;;15.65;6.20;;;;;;;10.29;64.00;99888.38;126502;1086;104367;-82
2023/04/25 01:07:42;;;;;;;17.27;6.80;;;;;;;10.28;64.25;99881.34;126584;1089;104395;-79
2023/04/25 01:10:11;;;;;;;13.57;6.17;;;;;;;10.29;64.14;99879.63;126473;1089;104280;-80
2023/04/25 01:12:39;;;;;;;13.23;6.13;;;;;;;10.30;64.23;99878.77;126319;1086;104232;-81
2023/04/25 01:15:09;;;;;;;12.70;5.53;;;;;;;10.30;63.80;99884.01;126262;1086;104235;-82
2023/04/25 01:17:39;;;;;;;12.67;5.57;;;;;;;10.28;63.85;99878.72;126120;1086;104340;-81
2023/04/25 01:20:11;;;;;;;15.17;5.83;;;;;;;10.26;64.61;99877.80;126229;1086;104302;-81
2023/04/25 01:22:40;;;;;;;13.83;6.10;;;;;;;10.23;64.09;99878.59;126767;1086;104277;-80
2023/04/25 01:25:09;;;;;;;10.47;5.57;;;;;;;10.23;64.33;99881.22;126463;1086;104209;-80
2023/04/25 01:27:39;;;;;;;13.50;5.67;;;;;;;10.23;64.67;99875.09;126166;1086;104284;-80
2023/04/25 01:30:10;;;;;;;14.03;6.10;;;;;;;10.22;64.42;99866.36;126033;1087;104341;-81
2023/04/25 01:32:40;;;;;;;11.07;6.00;;;;;;;10.21;64.96;99864.56;126132;1086;104382;-80
2023/04/25 01:35:11;;;;;;;12.80;5.90;;;;;;;10.17;64.28;99865.32;125762;1086;104306;-81
2023/04/25 01:37:40;;;;;;;14.90;6.30;;;;;;;10.14;64.90;99854.75;126030;1086;104244;-81
2023/04/25 01:40:11;;;;;;;10.70;5.87;;;;;;;10.11;64.92;99859.91;126150;1089;104302;-81
2023/04/25 01:42:42;;;;;;;18.17;6.80;;;;;;;10.04;64.96;99850.13;125979;1089;104222;-80
2023/04/25 01:45:13;;;;;;;13.10;5.97;;;;;;;9.99;64.97;99851.73;125911;1086;104309;-81
2023/04/25 01:47:43;;;;;;;11.00;5.70;;;;;;;9.93;65.58;99856.81;126221;1086;104191;-80
2023/04/25 01:50:13;;;;;;;14.60;5.87;;;;;;;9.88;65.05;99854.94;126130;1088;104231;-81
2023/04/25 01:52:41;;;;;;;15.03;6.00;;;;;;;9.86;65.14;99847.86;125900;1089;104743;-81
2023/04/25 01:55:11;;;;;;;13.33;5.87;;;;;;;9.80;65.45;99845.98;125690;1086;104373;-82
2023/04/25 01:57:43;;;;;;;15.17;6.13;;;;;;;9.76;65.27;99848.47;125997;1087;104318;-82
2023/04/25 02:00:14;;;;;;;14.97;5.83;;;;;;;9.71;66.02;99845.72;126043;1089;102286;-82
2023/04/25 02:02:43;;;;;;;13.73;5.73;;;;;;;9.64;66.01;99844.63;126564;1086;104241;-81
2023/04/25 02:05:36;;;;;;;15.53;6.30;;;;;;;9.57;66.52;99847.94;126001;1087;104280;-80
2023/04/25 02:08:07;;;;;;;14.87;5.87;;;;;;;9.54;66.21;99842.61;126028;1089;104247;-83
2023/04/25 02:10:36;;;;;;;15.20;7.00;;;;;;;9.50;66.70;99840.73;126242;1086;104286;-80
2023/04/25 02:13:15;;;;;;;15.70;6.53;;;;;;;9.46;66.39;99850.23;126090;1089;104216;-80
2023/04/25 02:16:07;;;;;;;13.60;5.90;;;;;;;9.43;67.16;99844.03;125736;1086;104337;-81
2023/04/25 02:18:37;;;;;;;17.83;6.43;;;;;;;9.39;66.54;99844.77;125542;1086;104238;-81
2023/04/25 02:21:08;;;;;;;13.00;5.93;;;;;;;9.36;66.42;99840.31;126480;1086;104357;-81
2023/04/25 02:23:38;;;;;;;19.53;6.20;;;;;;;9.32;67.54;99839.34;125935;1086;104360;-83
2023/04/25 02:26:06;;;;;;;15.33;7.07;;;;;;;9.27;67.40;99838.33;125610;1087;104379;-79
2023/04/25 02:28:38;;;;;;;11.60;6.07;;;;;;;9.25;67.18;99839.12;125316;1087;104334;-80
2023/04/25 02:31:07;;;;;;;18.07;6.37;;;;;;;9.23;67.77;99836.45;125870;1086;104343;-82
2023/04/25 02:33:35;;;;;;;13.63;6.10;;;;;;;9.19;67.68;99831.95;126754;1086;104238;-83
2023/04/25 02:36:05;;;;;;;14.00;5.83;;;;;;;9.17;67.77;99836.27;126521;1086;104178;-83
2023/04/25 02:38:33;;;;;;;13.70;6.50;;;;;;;9.14;67.86;99834.42;126544;1086;104619;-81
2023/04/25 02:41:02;;;;;;;17.80;6.35;;;;;;;9.11;68.84;99833.45;126200;1086;104209;-83
2023/04/25 02:43:30;;;;;;;18.73;6.20;;;;;;;9.09;68.15;99837.77;126461;1086;104299;-80
2023/04/25 02:45:59;;;;;;;14.90;6.30;;;;;;;9.05;68.42;99841.12;126714;1086;104174;-82
2023/04/25 02:48:29;;;;;;;17.17;6.60;;;;;;;9.02;68.32;99839.28;126721;1086;104370;-81
2023/04/25 02:50:57;;;;;;;14.30;6.43;;;;;;;8.99;69.14;99845.33;126768;1086;104181;-81
2023/04/25 02:53:26;;;;;;;15.63;6.43;;;;;;;8.98;69.88;99842.66;126566;1086;104235;-81
2023/04/25 02:55:58;;;;;;;17.87;6.60;;;;;;;8.96;69.47;99847.84;126997;1086;104245;-80
2023/04/25 02:58:27;;;;;;;17.37;6.70;;;;;;;8.96;69.31;99834.77;126925;1086;104353;-81
2023/04/25 03:00:55;;;;;;;15.93;6.83;;;;;;;8.94;69.47;99839.07;126814;1086;104034;-81
2023/04/25 03:03:24;;;;;;;15.85;6.60;;;;;;;8.93;69.43;99832.05;126895;1086;102139;-80
2023/04/25 03:05:53;;;;;;;13.40;6.47;;;;;;;8.90;70.05;99831.95;126649;1086;104302;-80
2023/04/25 03:08:29;;;;;;;15.07;6.33;;;;;;;8.89;70.87;99827.55;126735;1086;104155;-82
2023/04/25 03:10:58;;;;;;;17.97;6.50;;;;;;;8.89;70.07;99827.55;126310;1086;104321;-82
2023/04/25 03:13:29;;;;;;;14.37;6.80;;;;;;;8.90;70.61;99826.72;126330;1086;104370;-81
2023/04/25 03:15:58;;;;;;;16.90;7.60;;;;;;;8.91;70.77;99825.89;126325;1086;102079;-81
2023/04/25 03:18:28;;;;;;;16.40;7.07;;;;;;;8.93;71.13;99818.97;126033;1086;111847;-82
2023/04/25 03:20:56;;;;;;;16.63;6.70;;;;;;;8.96;70.64;99820.77;125978;1086;104303;-82
2023/04/25 03:23:25;;;;;;;15.63;6.73;;;;;;;9.00;70.34;99822.66;126224;1086;104248;-80
2023/04/25 03:25:54;;;;;;;17.80;6.97;;;;;;;9.05;71.19;99823.67;126475;1086;104283;-81
2023/04/25 03:28:23;;;;;;;20.53;6.63;;;;;;;9.11;71.31;99822.98;126111;1086;104353;-81
2023/04/25 03:30:53;;;;;;;13.07;6.43;;;;;;;9.16;70.92;99830.15;125892;1086;104244;-81
2023/04/25 03:33:22;;;;;;;16.73;7.10;;;;;;;9.25;70.90;99828.64;126070;1086;104234;-80
2023/04/25 03:35:52;;;;;;;18.80;7.00;;;;;;;9.33;71.12;99819.28;126172;1086;104298;-80
2023/04/25 03:38:21;;;;;;;14.93;6.33;;;;;;;9.41;71.25;99828.27;126413;1086;104334;-81
2023/04/25 03:40:52;;;;;;;16.07;6.50;;;;;;;9.46;70.82;99824.05;125975;1086;104244;-81
2023/04/25 03:43:40;;;;;;;15.87;6.90;;;;;;;9.51;71.74;99829.42;125826;1086;104356;-81
2023/04/25 03:46:12;;;;;;;17.17;7.10;;;;;;;9.54;72.25;99819.03;125725;1086;104337;-82
2023/04/25 03:48:41;;;;;;;14.27;6.03;;;;;;;9.56;71.61;99813.84;125641;1086;104493;-80
2023/04/25 03:51:10;;;;;;;12.85;6.55;;;;;;;9.59;72.48;99816.55;125562;1086;104359;-81
2023/04/25 03:53:41;;;;;;;16.37;7.13;;;;;;;9.59;72.58;99819.17;125719;1086;104382;-81
2023/04/25 03:56:30;;;;;;;17.60;6.80;;;;;;;9.65;72.25;99825.46;125452;1086;104359;-81
2023/04/25 03:59:03;;;;;;;13.78;7.03;;;;;;;9.74;72.10;99826.56;125619;1086;104225;-84
2023/04/25 04:01:32;;;;;;;20.47;7.57;;;;;;;9.81;72.05;99825.89;126115;1086;104181;-83
2023/04/25 04:04:02;;;;;;;16.83;6.80;;;;;;;9.85;72.35;99823.41;125414;1086;104231;-83
2023/04/25 04:06:31;;;;;;;13.75;6.35;;;;;;;9.88;72.14;99826.11;125401;1086;104318;-80
2023/04/25 04:09:12;;;;;;;16.57;6.60;;;;;;;9.92;73.08;99818.33;125502;1085;104391;-79
2023/04/25 04:11:42;;;;;;;19.03;6.90;;;;;;;9.96;72.03;99817.58;125913;1086;104379;-81
2023/04/25 04:14:10;;;;;;;15.70;6.93;;;;;;;10.02;72.67;99818.63;125807;1086;104347;-82
2023/04/25 04:16:41;;;;;;;17.20;7.00;;;;;;;10.10;72.39;99823.17;125960;1086;104366;-83
2023/04/25 04:19:11;;;;;;;18.67;6.90;;;;;;;10.17;72.18;99822.50;125802;1086;104344;-82
2023/04/25 04:21:42;;;;;;;19.10;7.30;;;;;;;10.22;72.23;99811.30;126065;1086;104334;-82
2023/04/25 04:24:11;;;;;;;16.93;7.13;;;;;;;10.26;72.24;99817.50;125366;1086;104369;-80
2023/04/25 04:27:03;;;;;;;13.53;7.00;;;;;;;10.28;72.78;99810.55;125330;1086;104222;-80
2023/04/25 04:29:53;;;;;;;18.80;7.60;;;;;;;10.31;73.18;99813.25;125441;1086;108350;-80
2023/04/25 04:32:30;;;;;;;18.63;7.60;;;;;;;10.32;73.44;99815.03;125562;1086;104302;-79
2023/04/25 04:35:02;;;;;;;18.10;7.47;;;;;;;10.31;73.48;99807.12;125501;1086;104609;-79
2023/04/25 04:37:31;;;;;;;16.73;7.43;;;;;;;10.32;73.59;99812.41;125436;1086;104314;-80
2023/04/25 04:40:05;;;;;;;18.23;6.67;;;;;;;10.38;73.14;99809.98;126054;1086;104357;-82
2023/04/25 04:43:00;;;;;;;19.47;7.60;;;;;;;10.45;73.22;99812.76;125158;1086;104420;-77
2023/04/25 04:45:58;;;;;;;18.87;8.10;;;;;;;10.51;72.88;99805.05;125753;1086;104277;-81
2023/04/25 04:48:53;;;;;;;19.77;8.00;;;;;;;10.55;73.22;99799.00;125978;1086;104255;-83
2023/04/25 04:52:07;;;;;;;18.30;7.60;;;;;;;10.59;73.40;99799.11;125999;1086;104370;-85
2023/04/25 04:54:55;;;;;;;18.60;8.90;;;;;;;10.70;73.74;99803.75;127100;1086;102619;-84
2023/04/25 04:57:41;;;;;;;23.07;8.43;;;;;;;10.80;73.46;99795.25;126638;1086;104232;-82
2023/04/25 05:00:38;;;;;;;16.00;8.10;;;;;;;10.91;73.52;99795.51;127131;1086;102695;-84
2023/04/25 05:03:27;;;;;;;18.50;8.03;;;;;;;11.04;73.43;99797.54;127287;1086;104155;-78
2023/04/25 05:06:29;;;;;;;16.30;7.33;;;;;;;11.22;73.63;99796.16;125953;1086;104239;-78
2023/04/25 05:09:28;;;;;;;15.60;6.37;;;;;;;11.33;74.16;99786.80;126264;1086;104289;-80
2023/04/25 05:12:17;;;;;;;17.60;6.93;;;;;;;11.44;74.27;99793.16;126042;1086;104340;-83
2023/04/25 05:14:51;;;;;;;14.47;6.37;;;;;;;11.58;73.89;99789.94;126135;1086;104318;-81
2023/04/25 05:17:33;;;;;;;18.27;6.30;;;;;;;11.65;73.58;99792.69;126380;1086;104238;-85
2023/04/25 05:20:11;;;;;;;15.33;6.27;;;;;;;11.76;73.71;99786.77;126291;1089;104233;-81
2023/04/25 05:23:02;;;;;;;11.27;5.70;;;;;;;11.85;73.80;99782.56;126774;1086;104162;-81
2023/04/25 05:26:04;;;;;;;18.33;5.80;;;;;;;11.91;73.88;99788.82;126766;1086;104223;-81
2023/04/25 05:29:08;;;;;;;13.47;5.93;;;;;;;11.97;73.29;99783.72;127061;1086;104142;-83
2023/04/25 05:31:56;;;;;;;13.50;6.03;;;;;;;12.02;73.37;99777.66;127004;1086;111923;-84
2023/04/25 05:34:26;;;;;;;14.40;6.13;;;;;;;12.05;73.34;99779.47;126784;1086;102393;-83
2023/04/25 05:37:00;;;;;;;12.00;5.70;;;;;;;12.10;73.63;99780.43;126900;1086;104159;-81
2023/04/25 05:39:29;;;;;;;11.27;5.33;;;;;;;12.15;73.51;99778.75;126505;1086;104337;-82
2023/04/25 05:42:21;;;;;;;17.73;6.03;;;;;;;12.22;73.18;99780.65;126948;1086;104388;-82
2023/04/25 05:45:10;;;;;;;15.10;6.30;;;;;;;12.36;73.38;99783.52;126941;1086;104142;-82
2023/04/25 05:48:05;;;;;;;15.55;6.30;;;;;;;12.45;73.12;99772.28;126641;1086;104238;-84
2023/04/25 05:50:52;;;;;;;10.97;5.73;;;;;;;12.56;73.05;99775.08;126790;1086;104162;-83
2023/04/25 05:53:41;;;;;;;16.03;6.23;;;;;;;12.68;72.92;99779.63;126896;1086;108376;-83
2023/04/25 05:56:10;;;;;;;15.83;5.90;;;;;;;12.82;73.39;99771.95;127084;1086;102851;-78
2023/04/25 05:58:41;;;;;;;12.70;5.80;;;;;;;12.88;72.99;99772.05;126713;1086;104180;-82
2023/04/25 06:01:18;;;;;;;10.27;5.10;;;;;;;12.90;72.56;99765.95;127494;1086;102807;-78
2023/04/25 06:03:56;;;;;;;14.60;5.50;;;;;;;12.90;72.72;99767.67;126785;1086;102464;-84
2023/04/25 06:06:26;;;;;;;15.40;5.70;;;;;;;12.92;72.59;99764.21;126537;1086;104341;-80
2023/04/25 06:09:12;;;;;;;12.03;5.40;;;;;;;12.95;72.81;99766.02;126885;1086;104163;-81
2023/04/25 06:12:01;;;;;;;10.43;5.07;;;;;;;13.02;72.92;99764.34;126787;1086;104226;-82
2023/04/25 06:14:52;;;;;;;12.13;5.70;;;;;;;13.10;72.56;99754.79;127672;1086;102060;-83
2023/04/25 06:20:39;;;;;;;8.90;5.03;;;;;;;13.26;72.20;99746.23;127826;1086;102625;-81
2023/04/25 06:23:27;;;;;;;11.30;5.10;;;;;;;13.36;72.37;99741.12;127095;1086;102245;-81
2023/04/25 06:26:28;;;;;;;15.07;4.97;;;;;;;13.47;72.48;99744.76;126950;1086;102735;-79
2023/04/25 06:29:18;;;;;;;8.33;4.60;;;;;;;13.56;72.07;99736.95;126753;1086;102417;-77
2023/04/25 06:34:38;;;;;;;8.10;4.07;;;;;;;13.82;70.88;99731.06;126473;1086;104348;-76
2023/04/25 06:37:15;;;;;;;9.23;4.30;;;;;;;13.90;71.45;99734.69;126308;1086;104245;-79
2023/04/25 06:39:44;;;;;;;9.00;4.10;;;;;;;14.03;70.38;99727.77;126727;1086;104225;-78
2023/04/25 06:42:19;;;;;;;12.13;4.07;;;;;;;14.14;69.76;99728.73;126800;1086;102532;-78
2023/04/25 06:44:57;;;;;;;12.33;4.27;;;;;;;14.28;69.17;99728.86;126523;1086;102631;-79
2023/04/25 06:47:26;;;;;;;8.73;4.33;;;;;;;14.42;69.49;99726.33;127041;1086;104238;-79
2023/04/25 06:50:00;;;;;;;10.30;4.10;;;;;;;14.56;69.26;99722.03;126955;1086;102133;-77
2023/04/25 06:52:29;;;;;;;10.20;4.50;;;;;;;14.70;69.20;99731.84;126793;1086;104159;-81
2023/04/25 06:55:05;;;;;;;9.87;4.27;;;;;;;14.80;67.68;99731.02;127039;1088;104332;-82
2023/04/25 06:57:53;;;;;;;10.13;3.90;;;;;;;14.87;67.81;99719.63;126883;1089;104158;-84
2023/04/25 07:01:02;;;;;;;8.07;3.90;;;;;;;15.00;67.39;99717.05;126805;1086;104283;-82
2023/04/25 07:03:40;;;;;;;13.27;4.50;;;;;;;15.15;67.79;99724.19;126902;1086;102470;-81
2023/04/25 07:06:25;;;;;;;7.83;4.10;;;;;;;15.32;67.85;99718.94;126615;1089;104220;-82
2023/04/25 07:08:58;;;;;;;10.23;4.00;;;;;;;15.46;66.87;99715.48;126872;1086;101962;-81
2023/04/25 07:11:35;;;;;;;11.73;4.20;;;;;;;15.57;65.40;99710.23;126738;1086;104191;-82
2023/04/25 07:14:07;;;;;;;7.97;3.23;;;;;;;15.75;66.44;99712.05;127386;1089;104165;-84
2023/04/25 07:17:06;;;;;;;9.13;3.70;;;;;;;15.88;65.28;99712.07;127547;1086;104401;-80
2023/04/25 07:19:45;;;;;;;8.83;3.70;;;;;;;16.08;65.55;99707.70;127474;1089;102206;-81
2023/04/25 07:22:27;;;;;;;;;;;;;;;;;;;;;
2023/04/25 07:25:14;;;;;;;6.80;3.93;;;;;;;16.42;64.04;99705.03;126588;1089;103093;-81
2023/04/25 07:27:46;;;;;;;6.43;3.53;;;;;;;16.61;64.14;99700.62;126256;1090;102453;-78
2023/04/25 07:30:18;;;;;;;;;;;;;;;16.70;59.20;99694.40;126757;1086;104161;-81
2023/04/25 07:32:52;;;;;;;5.83;3.60;;;;;;;16.82;62.53;99707.62;126766;1086;104293;-84
2023/04/25 07:35:29;;;;;;;8.37;3.40;;;;;;;16.86;60.69;99696.17;126771;1089;104273;-81
2023/04/25 07:37:58;;;;;;;6.93;3.40;;;;;;;16.88;60.91;99699.69;126774;1087;104321;-78
2023/04/25 07:40:30;;;;;;;7.57;3.33;;;;;;;16.94;60.12;99690.85;126665;1086;102350;-79
2023/04/25 07:43:06;;;;;;;7.60;3.10;;;;;;;16.97;58.39;99697.89;126532;1089;104201;-84
2023/04/25 07:45:44;;;;;;;7.60;3.50;;;;;;;16.99;59.73;99696.14;126938;1086;104280;-79
2023/04/25 07:48:19;;;;;;;7.70;3.30;;;;;;;17.02;58.56;99691.70;126970;1086;101959;-83
2023/04/25 07:54:31;;;;;;;7.90;3.60;;;;;;;17.21;59.09;99687.20;126733;1089;104234;-80
2023/04/25 07:57:13;;;;;;;5.90;3.30;;;;;;;17.23;59.78;99693.39;127591;1086;104238;-81
2023/04/25 08:00:22;;;;;;;;;;;;;;;;;;;;;
2023/04/25 08:03:07;;;;;;;8.67;3.50;;;;;;;17.39;59.11;99687.98;126741;1086;102158;-81
2023/04/25 08:05:53;;;;;;;8.10;3.43;;;;;;;17.48;58.59;99689.73;127084;1086;102711;-80
2023/04/25 08:08:58;;;;;;;;;;;;;;;;;;;;;
2023/04/25 08:11:49;;;;;;;6.17;3.40;;;;;;;17.69;56.89;99686.95;127401;1086;104155;-80
2023/04/25 08:14:40;;;;;;;9.13;3.60;;;;;;;17.73;55.58;99690.45;127684;1085;104334;-83
2023/04/25 08:17:19;;;;;;;7.40;3.27;;;;;;;17.88;56.21;99693.04;127171;1086;102304;-75
2023/04/25 08:20:01;;;;;;;;;;;;;;;;;;;;;
2023/04/25 08:22:53;;;;;;;8.57;3.37;;;;;;;18.03;54.13;99689.41;127976;1086;101773;-82
2023/04/25 08:25:46;;;;;;;5.73;3.30;;;;;;;18.18;53.91;99692.83;127011;1086;104136;-79
2023/04/25 08:28:34;;;;;;;8.47;3.30;;;;;;;18.31;53.28;99684.74;126820;1086;104210;-78
2023/04/25 08:31:11;;;;;;;8.40;3.30;;;;;;;18.40;54.01;99681.13;126568;1086;104286;-77
2023/04/25 08:34:12;;;;;;;;;;;;;;;18.45;49.75;99683.72;126879;1085;104159;-81
2023/04/25 08:37:20;;;;;;;6.57;3.10;;;;;;;18.57;53.17;99680.07;127360;1086;103590;-82
2023/04/25 08:40:09;;;;;;;9.43;3.60;;;;;;;18.73;52.92;99678.12;127398;1086;104178;-81
2023/04/25 08:43:19;;;;;;;6.80;3.03;;;;;;;18.91;52.68;99682.41;126730;1089;104226;-81
2023/04/25 08:45:57;;;;;;;7.07;3.40;;;;;;;19.02;52.92;99677.83;126615;1086;104151;-80
2023/04/25 08:49:12;;;;;;;8.73;3.60;;;;;;;19.14;52.28;99675.03;126721;1086;102902;-81
2023/04/25 08:51:50;;;;;;;11.33;3.80;;;;;;;19.25;52.95;99674.89;126840;1086;104322;-82
2023/04/25 08:54:30;;;;;;;8.07;3.13;;;;;;;19.26;51.49;99679.32;126667;1086;104210;-80
2023/04/25 08:57:03;;;;;;;8.77;3.10;;;;;;;19.10;50.03;99669.77;126922;1086;102574;-77
2023/04/25 08:59:40;;;;;;;6.60;3.07;;;;;;;19.06;49.15;99674.25;126533;1086;104268;-83
2023/04/25 09:02:32;;;;;;;7.67;3.20;;;;;;;19.09;50.15;99673.31;126960;1086;104210;-79
2023/04/25 09:05:14;;;;;;;5.57;3.30;;;;;;;19.01;49.00;99663.67;126968;1085;101951;-83
2023/04/25 09:07:45;;;;;;;7.55;3.20;;;;;;;19.06;50.76;99674.25;127606;1086;102255;-81
2023/04/25 09:10:20;;;;;;;7.57;2.90;;;;;;;18.97;50.34;99677.89;126415;1086;104117;-81
2023/04/25 09:13:05;;;;;;;7.77;3.33;;;;;;;18.92;49.17;99671.75;127583;1086;102271;-78
2023/04/25 09:15:59;;;;;;;5.43;3.00;;;;;;;18.90;49.39;99668.24;126612;1086;104229;-83
2023/04/25 09:19:32;;;;;;;7.37;2.97;;;;;;;18.93;48.83;99662.89;126364;1089;107545;-81
2023/04/25 09:22:04;;;;;;;9.33;3.20;;;;;;;18.97;48.52;99663.73;126492;1089;104475;-76
2023/04/25 09:24:36;;;;;;;7.30;3.23;;;;;;;18.97;48.32;99677.02;126614;1086;104248;-79
2023/04/25 09:27:11;;;;;;;9.07;3.30;;;;;;;18.98;48.88;99666.37;126895;1086;102392;-78
2023/04/25 09:30:02;;;;;;;8.23;3.73;;;;;;;19.02;49.22;99664.55;126910;1086;118240;-84
2023/04/25 09:32:49;;;;;;;4.03;3.03;;;;;;;19.04;49.33;99655.66;126719;1086;102380;-80
2023/04/25 09:35:36;;;;;;;8.60;3.47;;;;;;;19.09;48.59;99660.92;127602;1086;102179;-81
2023/04/25 09:49:31;;;;;;;7.43;3.00;;;;;;;19.81;48.78;99643.08;125555;1096;104462;-77
2023/04/25 09:52:16;;;;;;;6.83;3.23;;;;;;;19.87;47.67;99653.63;126208;1093;102474;-80
2023/04/25 09:54:54;;;;;;;6.83;3.00;;;;;;;19.86;48.23;99645.67;127308;1089;102423;-81
2023/04/25 09:57:43;;;;;;;;;;;;;;;;;;;;;
2023/04/25 10:00:46;;;;;;;7.60;3.27;;;;;;;19.74;46.47;99641.38;126866;1086;118000;-79
2023/04/25 10:03:49;;;;;;;5.73;3.20;;;;;;;19.75;46.01;99646.67;126630;1086;102509;-81
2023/04/25 10:06:35;;;;;;;5.07;3.20;;;;;;;19.74;46.27;99644.94;128574;1086;101804;-86
2023/04/25 10:09:12;;;;;;;11.40;3.30;;;;;;;19.69;45.24;99640.58;128148;1086;101853;-83
2023/04/25 10:11:43;;;;;;;8.83;3.50;;;;;;;19.67;45.26;99640.59;128176;1086;101777;-85
2023/04/25 10:14:35;;;;;;;9.57;3.40;;;;;;;19.51;43.36;99645.27;128150;1086;102654;-80
2023/04/25 10:17:06;;;;;;;7.33;3.53;;;;;;;19.46;45.49;99635.59;128469;1086;102013;-80
2023/04/25 10:19:39;;;;;;;8.57;3.43;;;;;;;19.33;45.20;99643.74;128082;1086;101633;-81
2023/04/25 10:22:13;;;;;;;10.23;3.40;;;;;;;19.24;45.21;99640.34;128430;1086;101844;-84
2023/04/25 10:24:43;;;;;;;7.93;3.70;;;;;;;19.07;44.77;99643.22;128141;1086;101915;-78
2023/04/25 10:27:14;;;;;;;7.67;3.60;;;;;;;18.86;44.66;99639.93;128381;1086;102084;-82
2023/04/25 10:29:47;;;;;;;7.50;3.40;;;;;;;18.69;45.48;99634.77;128028;1086;102257;-84
2023/04/25 10:32:16;;;;;;;7.27;3.40;;;;;;;18.48;44.74;99641.19;127005;1086;104229;-83
2023/04/25 10:34:55;;;;;;;7.00;3.20;;;;;;;18.31;44.96;99654.66;127059;1087;102719;-81
2023/04/25 10:37:25;;;;;;;11.37;3.73;;;;;;;18.16;45.03;99668.94;127316;1086;102096;-82
2023/04/25 10:39:54;;;;;;;10.67;3.53;;;;;;;17.95;46.16;99669.98;127282;1086;102621;-82
2023/04/25 10:42:29;;;;;;;9.60;4.57;;;;;;;17.69;46.90;99678.12;127146;1086;103704;-81
2023/04/25 10:45:09;;;;;;;14.70;4.77;;;;;;;17.40;47.35;99677.38;127228;1086;104153;-82
2023/04/25 10:47:45;;;;;;;10.73;4.63;;;;;;;17.10;47.90;99675.77;127346;1086;104286;-79
2023/04/25 10:50:40;;;;;;;14.07;5.30;;;;;;;16.83;50.40;99688.20;127204;1086;102179;-79
2023/04/25 10:53:27;;;;;;;11.03;5.60;;;;;;;16.59;49.94;99683.83;126813;1086;104191;-77
2023/04/25 10:56:00;;;;;;;9.00;5.47;;;;;;;16.35;50.92;99698.00;127723;1086;102198;-80
2023/04/25 10:58:36;;;;;;;14.40;6.60;;;;;;;16.11;52.08;99686.54;127357;1086;104151;-80
2023/04/25 11:01:16;;;;;;;14.10;5.60;;;;;;;15.88;52.93;99690.91;127836;1086;104044;-82
2023/04/25 11:03:59;;;;;;;12.17;6.00;;;;;;;15.66;54.08;99696.16;127793;1089;102251;-81
2023/04/25 11:06:40;;;;;;;13.03;5.77;;;;;;;15.46;54.20;99693.46;127192;1086;104226;-80
2023/04/25 11:09:18;;;;;;;17.50;6.30;;;;;;;15.25;55.47;99694.25;127105;1086;104281;-79
2023/04/25 11:11:55;;;;;;;13.47;6.67;;;;;;;15.08;54.81;99697.73;127433;1086;102310;-79
2023/04/25 11:14:24;;;;;;;14.20;7.30;;;;;;;14.91;55.71;99699.38;126744;1086;104235;-78
2023/04/25 11:16:56;;;;;;;13.43;6.83;;;;;;;14.77;56.92;99694.02;126817;1086;102420;-81
2023/04/25 11:19:32;;;;;;;14.83;7.50;;;;;;;14.62;57.28;99699.23;126760;1086;102611;-83
2023/04/25 11:22:03;;;;;;;15.60;7.47;;;;;;;14.51;57.53;99691.22;127027;1086;104161;-81
2023/04/25 11:24:34;;;;;;;15.97;8.13;;;;;;;14.35;57.32;99680.55;127033;1086;104192;-82
2023/04/25 11:27:04;;;;;;;17.90;7.93;;;;;;;14.36;58.16;99694.61;126632;1086;102257;-81
2023/04/25 11:29:33;;;;;;;16.93;8.20;;;;;;;14.29;57.80;99692.78;127026;1086;102788;-83
2023/04/25 11:32:03;;;;;;;14.17;7.73;;;;;;;14.22;59.11;99690.99;126489;1086;104375;-78
2023/04/25 11:34:33;;;;;;;19.67;8.90;;;;;;;14.16;58.69;99692.72;126778;1086;104350;-76
2023/04/25 11:37:03;;;;;;;17.17;8.97;;;;;;;14.12;58.38;99679.49;126744;1086;104188;-79
2023/04/25 11:39:31;;;;;;;17.10;8.70;;;;;;;14.08;59.42;99677.69;126743;1086;102519;-78
2023/04/25 11:42:04;;;;;;;18.10;8.90;;;;;;;14.01;60.44;99688.19;127193;1086;102568;-80
2023/04/25 11:44:45;;;;;;;19.73;8.80;;;;;;;13.99;60.12;99679.39;127022;1086;102618;-82
2023/04/25 11:47:14;;;;;;;19.93;9.33;;;;;;;13.98;60.61;99676.73;126909;1086;102471;-81
2023/04/25 11:49:46;;;;;;;18.77;9.83;;;;;;;14.02;61.40;99673.23;126723;1086;102533;-79
2023/04/25 11:52:24;;;;;;;16.10;7.50;;;;;;;14.06;61.58;99676.80;126849;1086;102291;-81
2023/04/25 11:54:57;;;;;;;17.10;8.00;;;;;;;14.07;61.41;99671.54;126640;1086;102225;-77
2023/04/25 11:57:34;;;;;;;19.10;9.47;;;;;;;14.09;62.22;99669.78;126507;1086;104369;-80
2023/04/25 12:03:54;;;;;;;16.97;8.53;;;;;;;14.13;63.16;99670.69;127977;1086;101748;-84
2023/04/25 12:06:28;;;;;;;18.65;8.10;;;;;;;14.10;66.17;99668.02;126854;1086;104222;-78
2023/04/25 12:09:03;;;;;;;15.93;8.43;;;;;;;14.02;64.62;99667.95;126765;1089;104233;-79
2023/04/25 12:11:47;;;;;;;18.13;8.70;;;;;;;13.99;65.26;99671.47;126951;1086;104299;-80
2023/04/25 12:14:24;;;;;;;20.07;9.47;;;;;;;13.96;65.93;99665.27;128136;1086;101767;-80
2023/04/25 12:16:55;;;;;;;18.20;9.20;;;;;;;13.93;67.22;99663.51;127675;1086;102232;-74
2023/04/25 12:19:24;;;;;;;21.97;9.47;;;;;;;13.85;66.68;99667.81;126449;1086;104098;-82
2023/04/25 12:21:53;;;;;;;18.50;9.30;;;;;;;13.78;66.57;99658.09;126768;1086;103018;-81
2023/04/25 12:24:27;;;;;;;20.35;9.30;;;;;;;13.71;66.84;99651.86;126597;1089;103255;-83
2023/04/25 12:27:25;;;;;;;18.37;10.07;;;;;;;13.63;66.35;99662.36;126542;1087;104362;-79
2023/04/25 12:29:56;;;;;;;20.20;9.87;;;;;;;13.62;66.22;99655.31;126569;1089;104449;-81